Terminal Aerodrome Forecast
Issued by NWS

Home | Current Version | Previous Version | Text Only | Print | Product List | Glossary On
Versions: 1 2 3 4 5 6 7 8 9 10 11 12 13 14 15 16
000
FTUS43 KICT 180534
TAFHUT
TAF
KHUT 180534Z 1806/1906 22006KT P6SM SKC
     FM181000 24005KT 5SM BR SKC
     FM181400 24007KT P6SM FEW250
     FM181800 21008KT P6SM FEW250=

USA.gov is the U.S. government's official web portal to all federal, state and local government web resources and services.